NTJ weather

Manti-Ephraim Airport
Manti, Utah, United States

Public forecast

Using degrees Fahrenheit for public forecast. Weather courtesy of forecast.io.

METAR (pilot weather report)

Closest report is Delta Municipal Airport, 41.6 nm (77.0 km) W. Retrieved 2019/07/19 15:35 UTC (6 minutes ago):

KDTA 191535Z AUTO 19013G21KT 10SM CLR 28/M02 A3001 RMK AO1

TAF (pilot weather forecast)

Closest forecast is Provo Municipal Airport, 53.7 nm (99.4 km) N. Retrieved 2019/07/19 12:22 UTC (3 hours ago):

TAF KPVU 191120Z 1912/2012 16006KT P6SM SKC FM191900 21009KT P6SM SKC FM200200 35007KT P6SM FEW150 FM200700 VRB04KT P6SM FEW150